Terminal Aerodrome Forecast
Issued by NWS

Current Version | Previous Version | Text Only | Print | Product List | Glossary On
Versions: 1 2 3 4 5 6 7 8 9 10 11 12 13 14 15 16
532
FTUS44 KCRP 301424 AAA
TAFALI
TAF AMD
KALI 301424Z 3014/3112 05008KT P6SM SCT025 BKN060
     FM301500 01005KT P6SM VCSH SCT025 BKN040
      TEMPO 3015/3016 3SM SHRA BR BKN022
     FM301700 13013KT P6SM SCT050 BKN250
     FM310200 11005KT P6SM FEW020 BKN250
     FM310700 15006KT 5SM BR FEW010 BKN250=

USA.gov is the U.S. government's official web portal to all federal, state and local government web resources and services.